createdAt,value
2022-10-01T00:09:43.042Z,24.20
2022-10-01T00:24:44.496Z,24.10
2022-10-01T00:39:45.946Z,24.10
2022-10-01T00:54:47.401Z,24.10
2022-10-01T01:09:48.877Z,24.00
2022-10-01T01:24:50.327Z,24.00
2022-10-01T01:39:51.813Z,23.90
2022-10-01T01:54:53.261Z,23.90
2022-10-01T02:09:54.708Z,23.90
2022-10-01T02:24:56.162Z,23.80
2022-10-01T02:39:57.617Z,23.80
2022-10-01T02:54:59.070Z,23.70
2022-10-01T03:10:00.529Z,23.70
2022-10-01T03:25:01.980Z,23.70
2022-10-01T03:40:03.446Z,23.60
2022-10-01T03:55:04.918Z,23.60
2022-10-01T04:10:06.363Z,23.60
2022-10-01T04:25:07.835Z,23.60
2022-10-01T04:40:09.290Z,23.60
2022-10-01T04:55:10.799Z,23.50
2022-10-01T05:10:12.250Z,23.50
2022-10-01T05:25:13.723Z,23.50
2022-10-01T05:40:15.208Z,23.40
2022-10-01T05:55:16.662Z,23.40
2022-10-01T06:10:18.123Z,23.40
2022-10-01T06:25:19.575Z,23.40
2022-10-01T06:40:21.061Z,23.40
2022-10-01T06:55:22.528Z,23.40
2022-10-01T07:10:23.983Z,23.40
2022-10-01T07:25:25.455Z,23.40
2022-10-01T07:40:26.910Z,23.70
2022-10-01T07:55:28.368Z,24.60
2022-10-01T08:10:29.820Z,24.40
2022-10-01T08:25:31.279Z,24.20
2022-10-01T08:40:32.734Z,24.20
2022-10-01T08:55:34.190Z,24.30
2022-10-01T09:10:35.641Z,24.30
2022-10-01T09:40:53.605Z,24.30
2022-10-01T09:55:55.058Z,24.20
2022-10-01T10:10:56.514Z,24.30
2022-10-01T10:25:57.978Z,24.20
2022-10-01T10:40:59.436Z,24.30
2022-10-01T10:56:00.886Z,24.90
2022-10-01T11:11:02.339Z,27.20
2022-10-01T11:26:03.813Z,27.10
2022-10-01T11:41:05.268Z,26.50
2022-10-01T11:56:06.718Z,26.20
2022-10-01T12:11:08.182Z,29.20
2022-10-01T12:26:09.650Z,31.60
2022-10-01T12:41:11.102Z,33.30
2022-10-01T12:56:12.562Z,33.30
2022-10-01T13:11:14.022Z,32.60
2022-10-01T13:26:15.487Z,31.20
2022-10-01T13:41:16.951Z,30.50
2022-10-01T13:56:18.409Z,29.90
2022-10-01T14:11:19.858Z,29.40
2022-10-01T14:26:21.573Z,29.00
2022-10-01T14:41:23.034Z,28.60
2022-10-01T14:56:24.492Z,28.20
2022-10-01T15:11:25.940Z,28.00
2022-10-01T15:26:27.421Z,27.70
2022-10-01T15:41:33.007Z,27.50
2022-10-01T15:56:35.076Z,27.30
2022-10-01T16:11:36.767Z,27.10
2022-10-01T16:26:38.351Z,27.10
2022-10-01T16:41:39.951Z,27.50
2022-10-01T16:56:41.424Z,27.30
2022-10-01T17:11:42.891Z,26.90
2022-10-01T17:26:44.352Z,26.60
2022-10-01T17:41:45.809Z,26.30
2022-10-01T17:56:47.275Z,26.10
2022-10-01T18:11:48.787Z,25.90
2022-10-01T18:26:50.221Z,25.70
2022-10-01T18:41:51.670Z,25.60
2022-10-01T18:56:53.149Z,25.40
2022-10-01T19:11:54.610Z,25.20
2022-10-01T19:26:56.056Z,25.20
2022-10-01T19:41:57.534Z,25.00
2022-10-01T19:56:59.016Z,24.90
2022-10-01T20:12:00.478Z,24.90
2022-10-01T20:27:01.937Z,24.80
2022-10-01T20:42:03.377Z,24.70
2022-10-01T20:57:04.836Z,24.70
2022-10-01T21:12:06.299Z,24.60
2022-10-01T21:27:07.757Z,24.50
2022-10-01T21:42:09.211Z,24.50
2022-10-01T21:57:10.666Z,24.40
2022-10-01T22:12:12.121Z,24.30
2022-10-01T22:27:13.582Z,24.30
2022-10-01T22:42:15.048Z,24.20
2022-10-01T22:57:16.507Z,24.20
2022-10-01T23:12:18.047Z,24.20
2022-10-01T23:27:19.497Z,24.10
2022-10-01T23:42:21.038Z,24.10
2022-10-01T23:57:22.484Z,24.00
